Decoded Metar for KNAK (ANNAPOLIS/NAVAL in MD, USA) (IATA:NAK) | Meteo·Mobile Aviation Weather
aviador You're here:

KNAK Decoded Metar

ANNAPOLIS/NAVAL in MD, USA
Report Time2019-02-23 22:46:00
UTC Time2019-02-23 22:54:49
Flight Rules vfr VFR
Wind050° at 06 kt
W.Rank050° ranks 24
Current wind is below 050° avg. (6.0)
Visibility9999 m
Phenomena:N/A
Clouds:Scattered 012 Hf
Scattered 025 Hf
Overcast 030 Hf
Expected CloudBase > 1,600 ft AGL from Temp-Dew spread
Ceiling3,000 ft
Temp06°C (ISA -9)
Dew Point02°C (76% RH)
AAT2.2°C
QNH1024 hPa
Density Alt-1,355 ft
Elevation7 ft
Report Wrong Elevation
Raw Report
KNAK 232246Z AUTO 05006KT 8SM SCT012 SCT025 OVC030 06/02 A3025 RMK
AO2 T00560022 $=

Extra information for KNAK:More info

Metar Taf Metar & Taf Last 4 Metars F.Rules Stats Wind Profile Meteogram Temp Stats Airport Information Weather charts Add Link Nearby VenuesMetar ALERT Operation Metar Decoded Social comments

AIRNAV info for KNAK